createdAt,value
2022-11-24T00:02:11.974Z,100.00
2022-11-24T00:04:40.303Z,100.00
2022-11-24T00:07:06.895Z,100.00
2022-11-24T00:09:33.414Z,100.00
2022-11-24T00:12:00.087Z,100.00
2022-11-24T00:14:26.809Z,100.00
2022-11-24T00:16:53.384Z,100.00
2022-11-24T00:19:20.150Z,100.00
2022-11-24T00:21:48.106Z,100.00
2022-11-24T00:24:14.651Z,100.00
2022-11-24T00:26:41.185Z,100.00
2022-11-24T00:29:09.330Z,100.00
2022-11-24T00:31:37.555Z,100.00
2022-11-24T00:34:06.147Z,100.00
2022-11-24T00:36:34.895Z,100.00
2022-11-24T00:39:06.359Z,100.00
2022-11-24T00:41:33.385Z,100.00
2022-11-24T00:44:00.555Z,100.00
2022-11-24T00:46:27.570Z,100.00
2022-11-24T00:48:54.553Z,100.00
2022-11-24T00:51:23.684Z,100.00
2022-11-24T00:53:50.202Z,100.00
2022-11-24T00:56:18.066Z,100.00
2022-11-24T00:58:44.649Z,100.00
2022-11-24T01:01:13.092Z,100.00
2022-11-24T01:03:39.889Z,100.00
2022-11-24T01:06:08.095Z,100.00
2022-11-24T01:08:36.630Z,100.00
2022-11-24T01:11:10.546Z,100.00
2022-11-24T01:13:38.589Z,100.00
2022-11-24T01:16:05.636Z,100.00
2022-11-24T01:18:32.236Z,100.00
2022-11-24T01:20:58.973Z,100.00
2022-11-24T01:23:25.641Z,100.00
2022-11-24T01:25:52.159Z,100.00
2022-11-24T01:28:18.660Z,100.00
2022-11-24T01:30:57.148Z,100.00
2022-11-24T01:33:23.686Z,100.00
2022-11-24T01:35:50.339Z,100.00
2022-11-24T01:38:17.032Z,100.00
2022-11-24T01:40:43.831Z,100.00
2022-11-24T01:43:16.182Z,100.00
2022-11-24T01:45:42.771Z,100.00
2022-11-24T01:48:22.070Z,100.00
2022-11-24T01:50:59.079Z,100.00
2022-11-24T01:53:25.805Z,100.00
2022-11-24T01:55:53.230Z,100.00
2022-11-24T01:58:24.036Z,100.00
2022-11-24T02:00:52.280Z,100.00
2022-11-24T02:03:25.278Z,100.00
2022-11-24T02:06:00.585Z,100.00
2022-11-24T02:08:33.422Z,100.00
2022-11-24T02:11:05.178Z,100.00
2022-11-24T02:13:33.300Z,100.00
2022-11-24T02:16:00.589Z,100.00
2022-11-24T02:18:29.008Z,100.00
2022-11-24T02:20:55.988Z,100.00
2022-11-24T02:23:24.915Z,100.00
2022-11-24T02:26:02.340Z,100.00
2022-11-24T02:28:31.429Z,100.00
2022-11-24T02:30:59.685Z,100.00
2022-11-24T02:33:26.967Z,100.00
2022-11-24T02:35:54.224Z,100.00
2022-11-24T02:38:29.589Z,100.00
2022-11-24T02:40:56.324Z,100.00
2022-11-24T02:43:24.189Z,100.00
2022-11-24T02:45:52.257Z,100.00
2022-11-24T02:48:18.799Z,100.00
2022-11-24T02:50:45.286Z,100.00
2022-11-24T02:53:12.082Z,100.00
2022-11-24T02:55:38.625Z,100.00
2022-11-24T02:58:05.127Z,100.00
2022-11-24T03:00:31.663Z,100.00
2022-11-24T03:02:59.861Z,100.00
2022-11-24T03:05:26.397Z,100.00
2022-11-24T03:07:52.928Z,100.00
2022-11-24T03:10:19.645Z,100.00
2022-11-24T03:12:46.151Z,100.00
2022-11-24T03:15:12.644Z,100.00
2022-11-24T03:17:39.155Z,100.00
2022-11-24T03:20:08.858Z,100.00
2022-11-24T03:22:36.883Z,100.00
2022-11-24T03:25:04.022Z,100.00
2022-11-24T03:27:30.947Z,100.00
2022-11-24T03:29:57.493Z,100.00
2022-11-24T03:32:24.006Z,100.00
2022-11-24T03:34:50.653Z,100.00
2022-11-24T03:37:18.563Z,100.00
2022-11-24T03:39:45.224Z,100.00
2022-11-24T03:42:11.939Z,100.00
2022-11-24T03:44:38.426Z,100.00
2022-11-24T03:47:05.162Z,100.00
2022-11-24T03:49:31.906Z,100.00
2022-11-24T03:52:02.590Z,100.00
2022-11-24T03:54:33.262Z,100.00
2022-11-24T03:57:00.167Z,100.00
2022-11-24T03:59:26.672Z,100.00
2022-11-24T04:01:53.555Z,100.00
2022-11-24T04:04:20.151Z,100.00
2022-11-24T04:06:46.670Z,100.00
2022-11-24T04:09:13.337Z,100.00
2022-11-24T04:11:41.201Z,100.00
2022-11-24T04:14:13.186Z,100.00
2022-11-24T04:16:40.165Z,100.00
2022-11-24T04:19:06.705Z,100.00
2022-11-24T04:21:33.251Z,100.00
2022-11-24T04:23:59.772Z,100.00
2022-11-24T04:26:26.291Z,100.00
2022-11-24T04:28:54.301Z,100.00
2022-11-24T04:31:20.940Z,100.00
2022-11-24T04:33:47.573Z,100.00
2022-11-24T04:36:14.275Z,100.00
2022-11-24T04:39:23.083Z,100.00
2022-11-24T04:41:27.261Z,100.00
2022-11-24T04:43:55.095Z,100.00
2022-11-24T04:46:21.810Z,100.00
2022-11-24T04:48:48.339Z,100.00
2022-11-24T04:51:15.405Z,100.00
2022-11-24T04:53:42.191Z,100.00
2022-11-24T04:56:09.447Z,100.00
2022-11-24T04:58:36.098Z,100.00
2022-11-24T05:01:06.996Z,100.00
2022-11-24T05:03:33.593Z,100.00
2022-11-24T05:06:00.156Z,100.00
2022-11-24T05:08:26.674Z,100.00
2022-11-24T05:10:53.227Z,100.00
2022-11-24T05:13:19.914Z,100.00
2022-11-24T05:15:46.643Z,100.00
2022-11-24T05:18:14.865Z,100.00
2022-11-24T05:20:41.906Z,100.00
2022-11-24T05:23:08.677Z,100.00
2022-11-24T05:25:35.595Z,100.00
2022-11-24T05:28:04.771Z,100.00
2022-11-24T05:30:32.311Z,100.00
2022-11-24T05:32:59.057Z,100.00
2022-11-24T05:35:26.959Z,100.00
2022-11-24T05:37:53.612Z,100.00
2022-11-24T05:40:20.169Z,100.00
2022-11-24T05:42:48.219Z,100.00
2022-11-24T05:45:17.565Z,100.00
2022-11-24T05:47:44.358Z,100.00
2022-11-24T05:50:12.938Z,100.00
2022-11-24T05:52:40.943Z,100.00
2022-11-24T05:55:08.566Z,100.00
2022-11-24T05:57:35.491Z,100.00
2022-11-24T06:00:02.806Z,100.00
2022-11-24T06:02:29.638Z,100.00
2022-11-24T06:04:56.210Z,100.00
2022-11-24T06:07:22.855Z,100.00
2022-11-24T06:09:50.801Z,100.00
2022-11-24T06:12:17.511Z,100.00
2022-11-24T06:14:44.063Z,100.00
2022-11-24T06:17:10.668Z,100.00
2022-11-24T06:19:41.706Z,100.00
2022-11-24T06:22:08.691Z,100.00
2022-11-24T06:24:35.407Z,100.00
2022-11-24T06:27:03.494Z,100.00
2022-11-24T06:29:30.240Z,100.00
2022-11-24T06:31:56.910Z,100.00
2022-11-24T06:34:23.757Z,100.00
2022-11-24T06:36:50.339Z,100.00
2022-11-24T06:39:16.879Z,100.00
2022-11-24T06:41:43.453Z,100.00
2022-11-24T06:44:11.410Z,100.00
2022-11-24T06:46:38.034Z,100.00
2022-11-24T06:49:04.699Z,100.00
2022-11-24T06:51:31.338Z,100.00
2022-11-24T06:53:58.086Z,100.00
2022-11-24T06:56:24.813Z,100.00
2022-11-24T06:58:53.382Z,100.00
2022-11-24T07:01:23.019Z,100.00
2022-11-24T07:03:50.913Z,100.00
2022-11-24T07:06:18.956Z,100.00
2022-11-24T07:08:45.532Z,100.00
2022-11-24T07:11:14.745Z,100.00
2022-11-24T07:13:41.826Z,100.00
2022-11-24T07:16:15.900Z,100.00
2022-11-24T07:18:45.474Z,100.00
2022-11-24T07:21:12.562Z,100.00
2022-11-24T07:23:39.359Z,100.00
2022-11-24T07:26:07.573Z,100.00
2022-11-24T07:28:34.701Z,100.00
2022-11-24T07:31:05.642Z,100.00
2022-11-24T07:33:32.133Z,100.00
2022-11-24T07:36:01.515Z,100.00
2022-11-24T07:38:29.284Z,100.00
2022-11-24T07:41:00.151Z,100.00
2022-11-24T07:43:26.885Z,100.00
2022-11-24T07:45:53.469Z,100.00
2022-11-24T07:48:20.427Z,100.00
2022-11-24T07:50:49.950Z,100.00
2022-11-24T07:53:22.107Z,100.00
2022-11-24T07:55:53.649Z,100.00
2022-11-24T07:58:20.223Z,100.00
2022-11-24T08:00:46.842Z,100.00
2022-11-24T08:03:13.511Z,100.00
2022-11-24T08:05:54.495Z,100.00
2022-11-24T08:08:27.968Z,100.00
2022-11-24T08:10:54.559Z,100.00
2022-11-24T08:13:21.106Z,100.00
2022-11-24T08:15:47.660Z,100.00
2022-11-24T08:18:14.272Z,100.00
2022-11-24T08:20:40.906Z,100.00
2022-11-24T08:23:07.649Z,100.00
2022-11-24T08:25:35.547Z,100.00
2022-11-24T08:28:03.944Z,100.00
2022-11-24T08:30:30.558Z,100.00
2022-11-24T08:32:58.715Z,100.00
2022-11-24T08:35:25.294Z,100.00
2022-11-24T08:37:51.914Z,100.00
2022-11-24T08:40:18.511Z,100.00
2022-11-24T08:42:46.631Z,100.00
2022-11-24T08:45:21.036Z,100.00
2022-11-24T08:47:52.098Z,100.00
2022-11-24T08:50:18.657Z,100.00
2022-11-24T08:52:45.305Z,100.00
2022-11-24T08:55:12.011Z,100.00
2022-11-24T08:57:38.641Z,100.00
2022-11-24T09:00:08.133Z,100.00
2022-11-24T09:02:34.812Z,100.00
2022-11-24T09:05:01.382Z,100.00
2022-11-24T09:07:27.972Z,100.00
2022-11-24T09:09:54.559Z,100.00
2022-11-24T09:12:21.142Z,100.00
2022-11-24T09:14:47.893Z,100.00
2022-11-24T09:17:15.803Z,100.00
2022-11-24T09:19:42.339Z,98.92
2022-11-24T09:22:08.846Z,98.20
2022-11-24T09:24:35.437Z,98.22
2022-11-24T09:27:02.039Z,98.23
2022-11-24T09:29:28.542Z,96.63
2022-11-24T09:31:55.094Z,98.21
2022-11-24T09:34:22.982Z,97.35
2022-11-24T09:36:49.520Z,97.33
2022-11-24T09:39:16.058Z,97.96
2022-11-24T09:42:02.186Z,98.12
2022-11-24T09:44:58.501Z,98.38
2022-11-24T09:47:38.267Z,99.08
2022-11-24T09:50:13.762Z,99.19
2022-11-24T09:52:46.307Z,98.42
2022-11-24T09:55:41.956Z,99.08
2022-11-24T09:58:24.424Z,99.35
2022-11-24T10:00:53.567Z,99.64
2022-11-24T10:03:26.129Z,99.64
2022-11-24T10:05:54.699Z,100.00
2022-11-24T10:08:39.694Z,100.00
2022-11-24T10:11:13.779Z,100.00
2022-11-24T10:14:03.363Z,100.00
2022-11-24T10:16:43.136Z,100.00
2022-11-24T10:19:21.484Z,100.00
2022-11-24T10:22:03.258Z,100.00
2022-11-24T10:25:03.287Z,100.00
2022-11-24T10:27:35.988Z,100.00
2022-11-24T10:30:11.831Z,100.00
2022-11-24T10:32:44.093Z,100.00
2022-11-24T10:35:16.062Z,100.00
2022-11-24T10:37:52.970Z,98.82
2022-11-24T10:40:59.035Z,98.61
2022-11-24T10:43:15.715Z,96.81
2022-11-24T10:45:42.247Z,95.14
2022-11-24T10:48:22.562Z,94.20
2022-11-24T10:50:49.304Z,95.06
2022-11-24T10:53:23.083Z,94.13
2022-11-24T10:56:04.601Z,93.44
2022-11-24T10:58:37.772Z,94.20
2022-11-24T11:01:21.311Z,92.58
2022-11-24T11:03:49.708Z,91.64
2022-11-24T11:06:22.317Z,92.12
2022-11-24T11:09:16.117Z,90.27
2022-11-24T11:11:42.778Z,89.93
2022-11-24T11:14:11.018Z,89.43
2022-11-24T11:16:39.680Z,89.81
2022-11-24T11:19:48.478Z,88.79
2022-11-24T11:22:23.448Z,88.33
2022-11-24T11:25:04.924Z,88.59
2022-11-24T11:27:31.567Z,88.07
2022-11-24T11:35:52.619Z,88.28
2022-11-24T11:38:20.573Z,86.67
2022-11-24T11:40:50.459Z,87.63
2022-11-24T11:43:24.670Z,88.63
2022-11-24T11:45:59.997Z,88.92
2022-11-24T11:48:33.715Z,89.63
2022-11-24T11:51:26.790Z,89.02
2022-11-24T11:54:04.167Z,87.62
2022-11-24T11:56:35.094Z,88.13
2022-11-24T11:59:29.972Z,89.04
2022-11-24T12:02:34.751Z,88.31
2022-11-24T12:05:05.347Z,88.55
2022-11-24T12:07:52.458Z,88.06
2022-11-24T12:10:28.484Z,87.86
2022-11-24T12:13:11.267Z,87.81
2022-11-24T12:15:41.304Z,87.46
2022-11-24T12:18:55.899Z,86.66
2022-11-24T12:21:18.927Z,85.82
2022-11-24T12:24:02.065Z,84.85
2022-11-24T12:26:39.269Z,83.97
2022-11-24T12:29:30.095Z,83.53
2022-11-24T12:32:07.992Z,82.64
2022-11-24T12:34:48.437Z,83.01
2022-11-24T12:37:47.621Z,82.75
2022-11-24T12:40:31.374Z,83.91
2022-11-24T12:43:08.016Z,81.68
2022-11-24T12:45:42.965Z,81.74
2022-11-24T12:48:30.103Z,81.83
2022-11-24T12:50:58.161Z,82.98
2022-11-24T12:53:28.444Z,83.62
2022-11-24T12:55:58.743Z,84.76
2022-11-24T12:58:32.666Z,85.13
2022-11-24T13:01:16.526Z,86.53
2022-11-24T13:03:52.643Z,88.11
2022-11-24T13:06:24.056Z,89.65
2022-11-24T13:08:50.966Z,90.22
2022-11-24T13:11:38.518Z,91.02
2022-11-24T13:14:11.536Z,91.38
2022-11-24T13:17:13.468Z,91.10
2022-11-24T13:19:37.160Z,91.10
2022-11-24T13:22:23.505Z,90.15
2022-11-24T13:25:13.434Z,90.34
2022-11-24T13:27:47.075Z,90.01
2022-11-24T13:30:50.142Z,90.58
2022-11-24T13:33:32.294Z,90.92
2022-11-24T13:36:30.750Z,90.07
2022-11-24T13:38:58.197Z,89.71
2022-11-24T13:42:07.406Z,90.01
2022-11-24T13:44:49.638Z,90.26
2022-11-24T13:47:39.710Z,90.07
2022-11-24T13:50:44.467Z,89.30
2022-11-24T13:53:18.232Z,90.30
2022-11-24T13:55:56.775Z,90.58
2022-11-24T13:58:29.672Z,90.48
2022-11-24T14:01:12.982Z,90.19
2022-11-24T14:04:07.026Z,89.77
2022-11-24T14:06:35.880Z,89.17
2022-11-24T14:09:18.152Z,89.75
2022-11-24T14:11:54.842Z,89.19
2022-11-24T14:14:26.251Z,89.35
2022-11-24T14:17:08.475Z,88.26
2022-11-24T14:19:35.222Z,87.38
2022-11-24T14:22:01.981Z,87.11
2022-11-24T14:24:35.445Z,86.32
2022-11-24T14:27:04.894Z,85.99
2022-11-24T14:29:31.476Z,86.72
2022-11-24T14:32:00.053Z,86.55
2022-11-24T14:34:29.689Z,85.87
2022-11-24T14:36:58.021Z,86.37
2022-11-24T14:39:26.006Z,87.35
2022-11-24T14:41:58.810Z,87.80
2022-11-24T14:44:28.329Z,87.47
2022-11-24T14:47:06.183Z,87.34
2022-11-24T14:49:40.061Z,87.77
2022-11-24T14:52:12.954Z,87.35
2022-11-24T14:54:46.660Z,86.79
2022-11-24T14:57:23.565Z,87.20
2022-11-24T15:00:16.222Z,86.57
2022-11-24T15:02:44.316Z,86.42
2022-11-24T15:05:12.305Z,86.70
2022-11-24T15:07:40.865Z,86.32
2022-11-24T15:10:20.458Z,87.68
2022-11-24T15:12:52.055Z,87.63
2022-11-24T15:15:20.746Z,88.03
2022-11-24T15:17:49.507Z,88.57
2022-11-24T15:20:25.207Z,88.95
2022-11-24T15:23:20.422Z,89.98
2022-11-24T15:25:47.026Z,90.50
2022-11-24T15:28:13.543Z,91.51
2022-11-24T15:30:40.241Z,91.98
2022-11-24T15:33:13.739Z,92.78
2022-11-24T15:35:45.422Z,93.27
2022-11-24T15:38:12.635Z,93.77
2022-11-24T15:40:40.410Z,94.77
2022-11-24T15:43:25.982Z,95.02
2022-11-24T15:45:52.542Z,95.75
2022-11-24T15:48:19.321Z,96.76
2022-11-24T15:50:48.100Z,97.70
2022-11-24T15:53:18.937Z,98.11
2022-11-24T15:55:45.509Z,98.49
2022-11-24T15:58:13.252Z,98.48
2022-11-24T16:00:40.468Z,99.36
2022-11-24T16:03:38.307Z,99.83
2022-11-24T16:05:57.007Z,100.00
2022-11-24T16:08:23.645Z,100.00
2022-11-24T16:10:50.404Z,100.00
2022-11-24T16:13:17.009Z,100.00
2022-11-24T16:15:44.897Z,100.00
2022-11-24T16:18:11.530Z,100.00
2022-11-24T16:20:38.074Z,100.00
2022-11-24T16:23:06.175Z,100.00
2022-11-24T16:25:32.664Z,100.00
2022-11-24T16:27:59.377Z,100.00
2022-11-24T16:30:26.052Z,100.00
2022-11-24T16:32:52.644Z,100.00
2022-11-24T16:35:19.220Z,100.00
2022-11-24T16:37:45.960Z,100.00
2022-11-24T16:40:14.250Z,100.00
2022-11-24T16:42:40.897Z,100.00
2022-11-24T16:45:10.471Z,100.00
2022-11-24T16:47:39.619Z,100.00
2022-11-24T16:50:07.831Z,100.00
2022-11-24T16:52:36.626Z,100.00
2022-11-24T16:55:03.573Z,100.00
2022-11-24T16:57:31.842Z,100.00
2022-11-24T16:59:58.500Z,100.00
2022-11-24T17:02:25.475Z,100.00
2022-11-24T17:04:52.373Z,100.00
2022-11-24T17:07:19.746Z,100.00
2022-11-24T17:09:46.616Z,100.00
2022-11-24T17:12:13.368Z,100.00
2022-11-24T17:14:41.600Z,100.00
2022-11-24T17:17:08.320Z,100.00
2022-11-24T17:19:35.110Z,100.00
2022-11-24T17:22:01.902Z,100.00
2022-11-24T17:24:28.635Z,100.00
2022-11-24T17:26:55.538Z,100.00
2022-11-24T17:29:22.384Z,100.00
2022-11-24T17:31:50.593Z,100.00
2022-11-24T17:34:17.587Z,100.00
2022-11-24T17:36:44.442Z,100.00
2022-11-24T17:39:11.494Z,100.00
2022-11-24T17:41:38.384Z,100.00
2022-11-24T17:44:05.370Z,100.00
2022-11-24T17:46:32.096Z,100.00
2022-11-24T17:49:00.395Z,100.00
2022-11-24T17:51:27.413Z,100.00
2022-11-24T17:53:55.388Z,100.00
2022-11-24T17:56:24.146Z,100.00
2022-11-24T17:58:52.928Z,100.00
2022-11-24T18:01:19.979Z,100.00
2022-11-24T18:03:50.467Z,100.00
2022-11-24T18:06:21.681Z,100.00
2022-11-24T18:08:48.194Z,100.00
2022-11-24T18:11:17.203Z,100.00
2022-11-24T18:14:01.134Z,100.00
2022-11-24T18:16:28.897Z,100.00
2022-11-24T18:19:07.385Z,100.00
2022-11-24T18:21:37.121Z,100.00
2022-11-24T18:24:03.976Z,100.00
2022-11-24T18:26:30.550Z,100.00
2022-11-24T18:28:57.107Z,100.00
2022-11-24T18:31:23.742Z,100.00
2022-11-24T18:33:50.386Z,100.00
2022-11-24T18:36:18.909Z,100.00
2022-11-24T18:38:46.766Z,100.00
2022-11-24T18:41:14.644Z,100.00
2022-11-24T18:43:41.746Z,100.00
2022-11-24T18:46:10.883Z,100.00
2022-11-24T18:48:37.376Z,100.00
2022-11-24T18:51:03.991Z,100.00
2022-11-24T18:53:30.557Z,100.00
2022-11-24T18:56:00.470Z,100.00
2022-11-24T18:58:28.309Z,100.00
2022-11-24T19:00:55.743Z,100.00
2022-11-24T19:03:22.425Z,100.00
2022-11-24T19:05:48.996Z,100.00
2022-11-24T19:08:15.477Z,100.00
2022-11-24T19:10:41.995Z,100.00
2022-11-24T19:13:09.881Z,100.00
2022-11-24T19:15:36.595Z,100.00
2022-11-24T19:18:03.237Z,100.00
2022-11-24T19:20:29.805Z,100.00
2022-11-24T19:22:56.305Z,100.00
2022-11-24T19:25:22.946Z,100.00
2022-11-24T19:27:49.497Z,100.00
2022-11-24T19:30:17.826Z,100.00
2022-11-24T19:32:44.364Z,100.00
2022-11-24T19:35:11.195Z,100.00
2022-11-24T19:37:37.758Z,100.00
2022-11-24T19:40:05.395Z,100.00
2022-11-24T19:42:31.935Z,100.00
2022-11-24T19:44:58.463Z,100.00
2022-11-24T19:47:26.419Z,100.00
2022-11-24T19:49:52.954Z,100.00
2022-11-24T19:52:19.521Z,100.00
2022-11-24T19:54:46.179Z,100.00
2022-11-24T19:57:12.768Z,100.00
2022-11-24T19:59:39.318Z,100.00
2022-11-24T20:02:06.179Z,100.00
2022-11-24T20:04:34.391Z,100.00
2022-11-24T20:07:01.189Z,100.00
2022-11-24T20:09:27.755Z,100.00
2022-11-24T20:11:54.499Z,100.00
2022-11-24T20:14:21.168Z,100.00
2022-11-24T20:16:48.038Z,100.00
2022-11-24T20:19:16.457Z,100.00
2022-11-24T20:21:45.251Z,100.00
2022-11-24T20:24:13.857Z,100.00
2022-11-24T20:26:42.590Z,100.00
2022-11-24T20:29:11.028Z,100.00
2022-11-24T20:31:40.139Z,100.00
2022-11-24T20:34:07.711Z,100.00
2022-11-24T20:36:37.809Z,100.00
2022-11-24T20:39:08.702Z,100.00
2022-11-24T20:41:36.453Z,100.00
2022-11-24T20:44:05.266Z,100.00
2022-11-24T20:46:34.255Z,100.00
2022-11-24T20:49:01.497Z,100.00
2022-11-24T20:51:30.327Z,100.00
2022-11-24T20:53:58.474Z,100.00
2022-11-24T20:56:28.603Z,100.00
2022-11-24T20:58:55.442Z,100.00
2022-11-24T21:01:24.788Z,100.00
2022-11-24T21:03:53.750Z,100.00
2022-11-24T21:06:20.410Z,100.00
2022-11-24T21:08:46.933Z,100.00
2022-11-24T21:11:14.661Z,100.00
2022-11-24T21:13:44.583Z,100.00
2022-11-24T21:16:12.510Z,100.00
2022-11-24T21:18:39.217Z,100.00
2022-11-24T21:21:06.473Z,100.00
2022-11-24T21:23:36.925Z,100.00
2022-11-24T21:26:05.695Z,100.00
2022-11-24T21:28:33.561Z,100.00
2022-11-24T21:31:04.298Z,100.00
2022-11-24T21:33:31.045Z,100.00
2022-11-24T21:36:01.075Z,100.00
2022-11-24T21:38:27.678Z,100.00
2022-11-24T21:40:54.253Z,100.00
2022-11-24T21:43:20.907Z,100.00
2022-11-24T21:45:47.487Z,100.00
2022-11-24T21:48:15.564Z,100.00
2022-11-24T21:50:42.121Z,100.00
2022-11-24T21:53:08.649Z,100.00
2022-11-24T21:55:35.158Z,100.00
2022-11-24T21:58:01.724Z,100.00
2022-11-24T22:00:28.252Z,100.00
2022-11-24T22:02:54.795Z,100.00
2022-11-24T22:05:22.726Z,100.00
2022-11-24T22:07:49.355Z,100.00
2022-11-24T22:10:16.182Z,100.00
2022-11-24T22:12:42.671Z,100.00
2022-11-24T22:15:09.966Z,100.00
2022-11-24T22:17:36.548Z,100.00
2022-11-24T22:20:03.455Z,100.00
2022-11-24T22:22:31.399Z,100.00
2022-11-24T22:24:57.951Z,100.00
2022-11-24T22:27:24.621Z,100.00
2022-11-24T22:29:54.085Z,100.00
2022-11-24T22:32:20.911Z,100.00
2022-11-24T22:34:47.423Z,100.00
2022-11-24T22:37:14.003Z,100.00
2022-11-24T22:39:41.883Z,100.00
2022-11-24T22:42:08.550Z,100.00
2022-11-24T22:44:35.218Z,100.00
2022-11-24T22:47:01.931Z,100.00
2022-11-24T22:49:28.553Z,100.00
2022-11-24T22:51:55.073Z,100.00
2022-11-24T22:54:21.773Z,100.00
2022-11-24T22:56:49.733Z,100.00
2022-11-24T22:59:16.282Z,100.00
2022-11-24T23:01:42.820Z,100.00
2022-11-24T23:04:09.366Z,100.00
2022-11-24T23:06:35.923Z,100.00
2022-11-24T23:09:04.027Z,100.00
2022-11-24T23:11:37.731Z,100.00
2022-11-24T23:14:07.524Z,100.00
2022-11-24T23:16:34.167Z,100.00
2022-11-24T23:19:00.685Z,100.00
2022-11-24T23:21:28.464Z,100.00
2022-11-24T23:23:55.998Z,100.00
2022-11-24T23:26:23.985Z,100.00
2022-11-24T23:28:50.820Z,100.00
2022-11-24T23:31:20.508Z,100.00
2022-11-24T23:33:47.748Z,100.00
2022-11-24T23:36:15.718Z,100.00
2022-11-24T23:38:43.560Z,100.00
2022-11-24T23:41:11.535Z,100.00
2022-11-24T23:43:39.846Z,100.00
2022-11-24T23:46:08.095Z,100.00
2022-11-24T23:48:36.578Z,100.00
2022-11-24T23:51:04.374Z,100.00
2022-11-24T23:53:31.380Z,100.00
2022-11-24T23:55:57.883Z,100.00
2022-11-24T23:58:24.560Z,100.00
